Pos Yokohama — DSOU4 — position and weather

sailwx.info

Track history (hours):
 
Tides and Currents Weather Stations Pressure Air Temp Water Temp Dewpoint Dewpoint Depression Visibility Wind Speed Wind Dir Waves Ship Positions

Pos Yokohama

Last reported at 2018-Feb-18 11:37 UTC. Time now 2018-Feb-21 02:04 UTC.
Position N 31°06' E 122°19'.

Length 144 m; draft 7.1 m.

Type: Cargo ship. MMSI: 440349000.

Date/timePositionNaut miles runAvg speedWind from/ knotsBaromVisibWave heightAir tempDewpointWater temp
2018-Feb-18 11:37N 31°06' E 122°19'1113.2
2018-Feb-18 10:49N 31°12' E 122°09'1114.4
2018-Feb-18 10:02N 31°15' E 121°56'114.5
2018-Feb-18 10:00N 31°15' E 121°55'714.5
2018-Feb-18 09:30N 31°18' E 121°48'2 0.2
2018-Feb-18 01:31N 31°18' E 121°46'013.9
2018-Feb-18 01:30N 31°18' E 121°46'613.1
2018-Feb-18 01:00N 31°16' E 121°53'611.9
2018-Feb-18 00:30N 31°15' E 121°60'611.3
2018-Feb-17 23:58N 31°13' E 122°07'511.8
2018-Feb-17 23:30N 31°10' E 122°12'510.1
2018-Feb-17 22:59N 31°07' E 122°17'612.7
2018-Feb-17 22:30N 31°07' E 122°24'4311.9
2018-Feb-17 18:53N 30°54' E 123°12'  
2018-Feb-14 21:33N 30°10' E 123°22'8414.9
2018-Feb-14 15:52N 30°54' E 124°46'  
2018-Feb-12 00:23N 31°05' E 122°29'3812.7
2018-Feb-11 21:24N 31°18' E 121°47'6 0.7
2018-Feb-11 12:25N 31°20' E 121°41'5 9.7
2018-Feb-11 11:52N 31°16' E 121°45'615.7
2018-Feb-11 11:30N 31°12' E 121°50'715.1
2018-Feb-11 11:00N 31°07' E 121°56'510.6
2018-Feb-11 10:30N 31°05' E 122°02'612.9
2018-Feb-11 10:00N 31°03' E 122°09'4 8.0
2018-Feb-11 09:30N 31°03' E 122°14'610.5
2018-Feb-11 08:58N 31°02' E 122°20'4 8.6
2018-Feb-11 08:30N 31°01' E 122°25'610.2
2018-Feb-11 07:57N 31°01' E 122°31'3 0.8
2018-Feb-11 04:03N 31°01' E 122°35'0 0.0
2018-Feb-11 04:00N 31°01' E 122°35'  
Track history (hours):
 
Tides and Currents Weather Stations Pressure Air Temp Water Temp Dewpoint Dewpoint Depression Visibility Wind Speed Wind Dir Waves Ship Positions

Pos Yokohama

Last reported at 2018-Feb-18 11:37 UTC. Time now 2018-Feb-21 02:04 UTC.
Position N 31°06' E 122°19'.

Length 144 m; draft 7.1 m.

Type: Cargo ship. MMSI: 440349000.

Date/timePositionNaut miles runAvg speedWind from/ knotsBaromVisibWave heightAir tempDewpointWater temp
2018-Feb-18 11:37N 31°06' E 122°19'1113.2
2018-Feb-18 10:49N 31°12' E 122°09'1114.4
2018-Feb-18 10:02N 31°15' E 121°56'114.5
2018-Feb-18 10:00N 31°15' E 121°55'714.5
2018-Feb-18 09:30N 31°18' E 121°48'2 0.2
2018-Feb-18 01:31N 31°18' E 121°46'013.9
2018-Feb-18 01:30N 31°18' E 121°46'613.1
2018-Feb-18 01:00N 31°16' E 121°53'611.9
2018-Feb-18 00:30N 31°15' E 121°60'611.3
2018-Feb-17 23:58N 31°13' E 122°07'511.8
2018-Feb-17 23:30N 31°10' E 122°12'510.1
2018-Feb-17 22:59N 31°07' E 122°17'612.7
2018-Feb-17 22:30N 31°07' E 122°24'4311.9
2018-Feb-17 18:53N 30°54' E 123°12'  
2018-Feb-14 21:33N 30°10' E 123°22'8414.9
2018-Feb-14 15:52N 30°54' E 124°46'  
2018-Feb-12 00:23N 31°05' E 122°29'3812.7
2018-Feb-11 21:24N 31°18' E 121°47'6 0.7
2018-Feb-11 12:25N 31°20' E 121°41'5 9.7
2018-Feb-11 11:52N 31°16' E 121°45'615.7
2018-Feb-11 11:30N 31°12' E 121°50'715.1
2018-Feb-11 11:00N 31°07' E 121°56'510.6
2018-Feb-11 10:30N 31°05' E 122°02'612.9
2018-Feb-11 10:00N 31°03' E 122°09'4 8.0
2018-Feb-11 09:30N 31°03' E 122°14'610.5
2018-Feb-11 08:58N 31°02' E 122°20'4 8.6
2018-Feb-11 08:30N 31°01' E 122°25'610.2
2018-Feb-11 07:57N 31°01' E 122°31'3 0.8
2018-Feb-11 04:03N 31°01' E 122°35'0 0.0
2018-Feb-11 04:00N 31°01' E 122°35'  

Dump ship's entire track history